sensor_id;sensor_type;location;lat;lon;timestamp;P1;durP1;ratioP1;P2;durP2;ratioP2
3865;SDS011;1948;53.250;10.412;2023-09-12T00:02:17;38.73;;;15.80;;
3865;SDS011;1948;53.250;10.412;2023-09-12T00:04:44;35.17;;;16.47;;
3865;SDS011;1948;53.250;10.412;2023-09-12T00:07:11;34.60;;;17.30;;
3865;SDS011;1948;53.250;10.412;2023-09-12T00:09:39;28.63;;;15.00;;
3865;SDS011;1948;53.250;10.412;2023-09-12T00:12:06;24.43;;;17.80;;
3865;SDS011;1948;53.250;10.412;2023-09-12T00:14:33;45.60;;;17.30;;
3865;SDS011;1948;53.250;10.412;2023-09-12T00:17:00;26.90;;;15.30;;
3865;SDS011;1948;53.250;10.412;2023-09-12T00:19:30;47.13;;;17.80;;
3865;SDS011;1948;53.250;10.412;2023-09-12T00:22:00;30.07;;;18.40;;
3865;SDS011;1948;53.250;10.412;2023-09-12T00:24:27;20.93;;;16.03;;
3865;SDS011;1948;53.250;10.412;2023-09-12T00:26:57;30.17;;;17.60;;
3865;SDS011;1948;53.250;10.412;2023-09-12T00:29:24;29.20;;;17.80;;
3865;SDS011;1948;53.250;10.412;2023-09-12T00:31:51;29.20;;;18.40;;
3865;SDS011;1948;53.250;10.412;2023-09-12T00:34:21;39.00;;;19.23;;
3865;SDS011;1948;53.250;10.412;2023-09-12T00:36:48;27.67;;;17.20;;
3865;SDS011;1948;53.250;10.412;2023-09-12T00:39:15;33.33;;;21.47;;
3865;SDS011;1948;53.250;10.412;2023-09-12T00:41:42;37.83;;;20.27;;
3865;SDS011;1948;53.250;10.412;2023-09-12T00:44:10;29.83;;;21.03;;
3865;SDS011;1948;53.250;10.412;2023-09-12T00:46:39;30.27;;;20.00;;
3865;SDS011;1948;53.250;10.412;2023-09-12T00:49:12;31.77;;;20.90;;
3865;SDS011;1948;53.250;10.412;2023-09-12T00:51:42;30.23;;;21.23;;
3865;SDS011;1948;53.250;10.412;2023-09-12T00:54:11;41.77;;;21.50;;
3865;SDS011;1948;53.250;10.412;2023-09-12T00:56:40;44.97;;;21.30;;
3865;SDS011;1948;53.250;10.412;2023-09-12T00:59:08;30.43;;;21.00;;
3865;SDS011;1948;53.250;10.412;2023-09-12T01:01:36;29.90;;;21.13;;
3865;SDS011;1948;53.250;10.412;2023-09-12T01:04:04;45.00;;;23.80;;
3865;SDS011;1948;53.250;10.412;2023-09-12T01:06:35;46.07;;;20.90;;
3865;SDS011;1948;53.250;10.412;2023-09-12T01:09:05;46.20;;;22.13;;
3865;SDS011;1948;53.250;10.412;2023-09-12T01:11:32;25.83;;;20.33;;
3865;SDS011;1948;53.250;10.412;2023-09-12T01:13:59;36.90;;;20.77;;
3865;SDS011;1948;53.250;10.412;2023-09-12T01:16:27;36.07;;;22.63;;
3865;SDS011;1948;53.250;10.412;2023-09-12T01:18:56;33.20;;;21.80;;
3865;SDS011;1948;53.250;10.412;2023-09-12T01:27:22;37.53;;;26.07;;
3865;SDS011;1948;53.250;10.412;2023-09-12T01:30:01;46.93;;;27.07;;
3865;SDS011;1948;53.250;10.412;2023-09-12T01:32:32;39.00;;;26.93;;
3865;SDS011;1948;53.250;10.412;2023-09-12T01:35:00;42.00;;;26.60;;
3865;SDS011;1948;53.250;10.412;2023-09-12T01:37:31;39.40;;;24.40;;
3865;SDS011;1948;53.250;10.412;2023-09-12T01:40:01;40.37;;;26.77;;
3865;SDS011;1948;53.250;10.412;2023-09-12T01:42:40;50.43;;;27.90;;
3865;SDS011;1948;53.250;10.412;2023-09-12T01:45:16;46.23;;;29.97;;
3865;SDS011;1948;53.250;10.412;2023-09-12T01:47:49;45.93;;;27.50;;
3865;SDS011;1948;53.250;10.412;2023-09-12T01:50:17;46.50;;;27.50;;
3865;SDS011;1948;53.250;10.412;2023-09-12T01:52:45;43.20;;;26.10;;
3865;SDS011;1948;53.250;10.412;2023-09-12T01:55:13;43.40;;;27.40;;
3865;SDS011;1948;53.250;10.412;2023-09-12T01:57:42;36.03;;;26.20;;
3865;SDS011;1948;53.250;10.412;2023-09-12T02:00:09;44.00;;;26.80;;
3865;SDS011;1948;53.250;10.412;2023-09-12T02:02:39;58.23;;;34.57;;
3865;SDS011;1948;53.250;10.412;2023-09-12T02:05:08;45.90;;;29.10;;
3865;SDS011;1948;53.250;10.412;2023-09-12T02:07:49;46.93;;;28.60;;
3865;SDS011;1948;53.250;10.412;2023-09-12T02:10:16;46.07;;;30.17;;
3865;SDS011;1948;53.250;10.412;2023-09-12T02:12:43;52.00;;;31.97;;
3865;SDS011;1948;53.250;10.412;2023-09-12T02:15:13;48.97;;;31.70;;
3865;SDS011;1948;53.250;10.412;2023-09-12T02:17:41;45.03;;;31.80;;
3865;SDS011;1948;53.250;10.412;2023-09-12T02:20:10;45.10;;;32.97;;
3865;SDS011;1948;53.250;10.412;2023-09-12T02:22:38;58.30;;;33.57;;
3865;SDS011;1948;53.250;10.412;2023-09-12T02:25:05;47.83;;;32.13;;
3865;SDS011;1948;53.250;10.412;2023-09-12T02:27:37;64.90;;;37.00;;
3865;SDS011;1948;53.250;10.412;2023-09-12T02:30:05;50.97;;;34.90;;
3865;SDS011;1948;53.250;10.412;2023-09-12T02:32:33;54.07;;;35.53;;
3865;SDS011;1948;53.250;10.412;2023-09-12T02:35:00;57.23;;;33.60;;
3865;SDS011;1948;53.250;10.412;2023-09-12T02:37:30;53.30;;;36.07;;
3865;SDS011;1948;53.250;10.412;2023-09-12T02:39:57;62.80;;;34.70;;
3865;SDS011;1948;53.250;10.412;2023-09-12T02:42:24;57.10;;;34.40;;
3865;SDS011;1948;53.250;10.412;2023-09-12T02:44:52;63.70;;;35.27;;
3865;SDS011;1948;53.250;10.412;2023-09-12T02:47:19;55.03;;;32.83;;
3865;SDS011;1948;53.250;10.412;2023-09-12T02:49:46;62.33;;;32.50;;
3865;SDS011;1948;53.250;10.412;2023-09-12T02:52:13;42.43;;;31.93;;
3865;SDS011;1948;53.250;10.412;2023-09-12T02:54:43;52.83;;;31.30;;
3865;SDS011;1948;53.250;10.412;2023-09-12T02:57:10;46.30;;;30.10;;
3865;SDS011;1948;53.250;10.412;2023-09-12T02:59:37;63.20;;;32.67;;
3865;SDS011;1948;53.250;10.412;2023-09-12T03:02:06;44.27;;;30.97;;
3865;SDS011;1948;53.250;10.412;2023-09-12T03:04:34;39.53;;;29.53;;
3865;SDS011;1948;53.250;10.412;2023-09-12T03:07:03;51.07;;;32.93;;
3865;SDS011;1948;53.250;10.412;2023-09-12T03:09:31;56.73;;;32.73;;
3865;SDS011;1948;53.250;10.412;2023-09-12T03:12:01;59.00;;;30.60;;
3865;SDS011;1948;53.250;10.412;2023-09-12T03:14:31;54.20;;;34.90;;
3865;SDS011;1948;53.250;10.412;2023-09-12T03:16:58;64.93;;;34.87;;
3865;SDS011;1948;53.250;10.412;2023-09-12T03:19:29;54.47;;;33.70;;
3865;SDS011;1948;53.250;10.412;2023-09-12T03:21:56;56.80;;;33.37;;
3865;SDS011;1948;53.250;10.412;2023-09-12T03:24:26;52.10;;;33.97;;
3865;SDS011;1948;53.250;10.412;2023-09-12T03:26:55;61.03;;;36.47;;
3865;SDS011;1948;53.250;10.412;2023-09-12T03:29:22;69.40;;;36.47;;
3865;SDS011;1948;53.250;10.412;2023-09-12T03:31:49;64.03;;;36.70;;
3865;SDS011;1948;53.250;10.412;2023-09-12T03:34:19;57.43;;;35.80;;
3865;SDS011;1948;53.250;10.412;2023-09-12T03:36:46;59.63;;;34.40;;
3865;SDS011;1948;53.250;10.412;2023-09-12T03:39:13;62.33;;;35.90;;
3865;SDS011;1948;53.250;10.412;2023-09-12T03:41:41;55.10;;;35.17;;
3865;SDS011;1948;53.250;10.412;2023-09-12T03:44:08;52.60;;;34.90;;
3865;SDS011;1948;53.250;10.412;2023-09-12T03:46:35;49.90;;;33.70;;
3865;SDS011;1948;53.250;10.412;2023-09-12T03:49:02;52.17;;;37.23;;
3865;SDS011;1948;53.250;10.412;2023-09-12T03:51:29;52.03;;;33.63;;
3865;SDS011;1948;53.250;10.412;2023-09-12T03:53:59;57.67;;;34.13;;
3865;SDS011;1948;53.250;10.412;2023-09-12T03:56:26;54.57;;;32.97;;
3865;SDS011;1948;53.250;10.412;2023-09-12T03:58:53;56.90;;;35.50;;
3865;SDS011;1948;53.250;10.412;2023-09-12T04:01:24;49.23;;;33.60;;
3865;SDS011;1948;53.250;10.412;2023-09-12T04:03:52;52.47;;;35.70;;
3865;SDS011;1948;53.250;10.412;2023-09-12T04:06:20;56.30;;;35.73;;
3865;SDS011;1948;53.250;10.412;2023-09-12T04:08:47;52.03;;;33.03;;
3865;SDS011;1948;53.250;10.412;2023-09-12T04:11:15;56.20;;;33.03;;
3865;SDS011;1948;53.250;10.412;2023-09-12T04:13:45;60.30;;;34.60;;
3865;SDS011;1948;53.250;10.412;2023-09-12T04:16:15;57.70;;;35.07;;
3865;SDS011;1948;53.250;10.412;2023-09-12T04:18:42;59.07;;;34.50;;
3865;SDS011;1948;53.250;10.412;2023-09-12T04:21:11;51.53;;;33.90;;
3865;SDS011;1948;53.250;10.412;2023-09-12T04:23:38;43.13;;;32.23;;
3865;SDS011;1948;53.250;10.412;2023-09-12T04:26:08;59.20;;;33.03;;
3865;SDS011;1948;53.250;10.412;2023-09-12T04:28:35;54.30;;;34.13;;
3865;SDS011;1948;53.250;10.412;2023-09-12T04:31:04;61.07;;;36.00;;
3865;SDS011;1948;53.250;10.412;2023-09-12T04:33:31;50.13;;;35.10;;
3865;SDS011;1948;53.250;10.412;2023-09-12T04:36:00;52.73;;;33.03;;
3865;SDS011;1948;53.250;10.412;2023-09-12T04:38:28;51.50;;;33.30;;
3865;SDS011;1948;53.250;10.412;2023-09-12T04:40:56;54.03;;;34.90;;
3865;SDS011;1948;53.250;10.412;2023-09-12T04:43:33;56.23;;;35.30;;
3865;SDS011;1948;53.250;10.412;2023-09-12T04:46:00;59.63;;;37.23;;
3865;SDS011;1948;53.250;10.412;2023-09-12T04:48:27;57.53;;;35.77;;
3865;SDS011;1948;53.250;10.412;2023-09-12T04:50:55;70.40;;;37.30;;
3865;SDS011;1948;53.250;10.412;2023-09-12T04:53:22;60.03;;;37.63;;
3865;SDS011;1948;53.250;10.412;2023-09-12T04:55:53;64.33;;;36.53;;
3865;SDS011;1948;53.250;10.412;2023-09-12T04:58:22;68.07;;;37.87;;
3865;SDS011;1948;53.250;10.412;2023-09-12T05:00:54;55.27;;;35.93;;
3865;SDS011;1948;53.250;10.412;2023-09-12T05:03:22;57.43;;;36.67;;
3865;SDS011;1948;53.250;10.412;2023-09-12T05:05:52;53.13;;;37.40;;
3865;SDS011;1948;53.250;10.412;2023-09-12T05:08:20;52.60;;;37.73;;
3865;SDS011;1948;53.250;10.412;2023-09-12T05:10:47;63.40;;;39.10;;
3865;SDS011;1948;53.250;10.412;2023-09-12T05:13:14;57.40;;;39.03;;
3865;SDS011;1948;53.250;10.412;2023-09-12T05:15:41;58.03;;;37.23;;
3865;SDS011;1948;53.250;10.412;2023-09-12T05:18:09;56.53;;;37.10;;
3865;SDS011;1948;53.250;10.412;2023-09-12T05:20:37;57.40;;;35.90;;
3865;SDS011;1948;53.250;10.412;2023-09-12T05:23:07;44.87;;;34.83;;
3865;SDS011;1948;53.250;10.412;2023-09-12T05:25:34;53.43;;;34.03;;
3865;SDS011;1948;53.250;10.412;2023-09-12T05:28:01;47.97;;;33.93;;
3865;SDS011;1948;53.250;10.412;2023-09-12T05:30:31;52.07;;;33.07;;
3865;SDS011;1948;53.250;10.412;2023-09-12T05:32:58;46.37;;;31.07;;
3865;SDS011;1948;53.250;10.412;2023-09-12T05:35:26;44.80;;;31.40;;
3865;SDS011;1948;53.250;10.412;2023-09-12T05:37:53;45.03;;;30.10;;
3865;SDS011;1948;53.250;10.412;2023-09-12T05:40:20;53.73;;;30.80;;
3865;SDS011;1948;53.250;10.412;2023-09-12T05:42:47;45.97;;;30.10;;
3865;SDS011;1948;53.250;10.412;2023-09-12T05:45:14;38.10;;;27.30;;
3865;SDS011;1948;53.250;10.412;2023-09-12T05:47:43;37.37;;;27.20;;
3865;SDS011;1948;53.250;10.412;2023-09-12T05:50:11;47.77;;;29.20;;
3865;SDS011;1948;53.250;10.412;2023-09-12T05:52:38;39.83;;;29.47;;
3865;SDS011;1948;53.250;10.412;2023-09-12T05:55:05;46.30;;;28.93;;
3865;SDS011;1948;53.250;10.412;2023-09-12T05:57:35;48.73;;;29.77;;
3865;SDS011;1948;53.250;10.412;2023-09-12T06:00:04;45.30;;;33.10;;
3865;SDS011;1948;53.250;10.412;2023-09-12T06:02:39;53.37;;;29.20;;
3865;SDS011;1948;53.250;10.412;2023-09-12T06:05:06;48.00;;;30.67;;
3865;SDS011;1948;53.250;10.412;2023-09-12T06:07:34;42.23;;;28.37;;
3865;SDS011;1948;53.250;10.412;2023-09-12T06:10:01;40.47;;;30.77;;
3865;SDS011;1948;53.250;10.412;2023-09-12T06:12:31;51.83;;;32.10;;
3865;SDS011;1948;53.250;10.412;2023-09-12T06:14:59;50.23;;;30.77;;
3865;SDS011;1948;53.250;10.412;2023-09-12T06:17:30;44.50;;;29.53;;
3865;SDS011;1948;53.250;10.412;2023-09-12T06:20:02;44.83;;;29.87;;
3865;SDS011;1948;53.250;10.412;2023-09-12T06:22:35;41.40;;;28.40;;
3865;SDS011;1948;53.250;10.412;2023-09-12T06:25:05;36.20;;;28.07;;
3865;SDS011;1948;53.250;10.412;2023-09-12T06:27:35;43.40;;;30.00;;
3865;SDS011;1948;53.250;10.412;2023-09-12T06:30:02;45.60;;;30.97;;
3865;SDS011;1948;53.250;10.412;2023-09-12T06:32:32;46.57;;;29.50;;
3865;SDS011;1948;53.250;10.412;2023-09-12T06:35:00;46.33;;;30.17;;
3865;SDS011;1948;53.250;10.412;2023-09-12T06:37:27;45.60;;;29.00;;
3865;SDS011;1948;53.250;10.412;2023-09-12T06:39:56;37.90;;;28.63;;
3865;SDS011;1948;53.250;10.412;2023-09-12T06:42:27;41.00;;;29.73;;
3865;SDS011;1948;53.250;10.412;2023-09-12T06:44:56;44.13;;;30.60;;
3865;SDS011;1948;53.250;10.412;2023-09-12T06:47:23;40.83;;;29.03;;
3865;SDS011;1948;53.250;10.412;2023-09-12T06:49:50;38.47;;;29.07;;
3865;SDS011;1948;53.250;10.412;2023-09-12T06:52:21;41.03;;;31.77;;
3865;SDS011;1948;53.250;10.412;2023-09-12T06:54:51;43.77;;;31.40;;
3865;SDS011;1948;53.250;10.412;2023-09-12T06:57:18;43.57;;;30.20;;
3865;SDS011;1948;53.250;10.412;2023-09-12T06:59:48;38.67;;;29.23;;
3865;SDS011;1948;53.250;10.412;2023-09-12T07:02:15;38.00;;;29.87;;
3865;SDS011;1948;53.250;10.412;2023-09-12T07:04:45;44.40;;;31.00;;
3865;SDS011;1948;53.250;10.412;2023-09-12T07:07:12;43.40;;;29.50;;
3865;SDS011;1948;53.250;10.412;2023-09-12T07:09:41;40.60;;;29.67;;
3865;SDS011;1948;53.250;10.412;2023-09-12T07:12:11;52.10;;;33.07;;
3865;SDS011;1948;53.250;10.412;2023-09-12T07:14:38;40.47;;;32.30;;
3865;SDS011;1948;53.250;10.412;2023-09-12T07:17:05;46.70;;;31.50;;
3865;SDS011;1948;53.250;10.412;2023-09-12T07:19:33;51.17;;;33.43;;
3865;SDS011;1948;53.250;10.412;2023-09-12T07:22:05;69.60;;;32.37;;
3865;SDS011;1948;53.250;10.412;2023-09-12T07:24:32;47.47;;;32.27;;
3865;SDS011;1948;53.250;10.412;2023-09-12T07:26:59;47.57;;;29.60;;
3865;SDS011;1948;53.250;10.412;2023-09-12T07:29:29;41.97;;;31.23;;
3865;SDS011;1948;53.250;10.412;2023-09-12T07:31:56;41.57;;;31.63;;
3865;SDS011;1948;53.250;10.412;2023-09-12T07:34:27;43.67;;;28.30;;
3865;SDS011;1948;53.250;10.412;2023-09-12T07:36:56;41.13;;;29.77;;
3865;SDS011;1948;53.250;10.412;2023-09-12T07:39:23;44.97;;;31.67;;
3865;SDS011;1948;53.250;10.412;2023-09-12T07:41:51;49.97;;;30.93;;
3865;SDS011;1948;53.250;10.412;2023-09-12T07:44:18;63.23;;;30.57;;
3865;SDS011;1948;53.250;10.412;2023-09-12T07:46:45;45.30;;;29.97;;
3865;SDS011;1948;53.250;10.412;2023-09-12T07:49:13;46.37;;;30.17;;
3865;SDS011;1948;53.250;10.412;2023-09-12T07:51:40;40.37;;;30.20;;
3865;SDS011;1948;53.250;10.412;2023-09-12T07:54:07;39.97;;;29.50;;
3865;SDS011;1948;53.250;10.412;2023-09-12T07:56:37;48.67;;;32.07;;
3865;SDS011;1948;53.250;10.412;2023-09-12T07:59:04;49.53;;;30.97;;
3865;SDS011;1948;53.250;10.412;2023-09-12T08:01:31;41.80;;;31.90;;
3865;SDS011;1948;53.250;10.412;2023-09-12T08:03:58;44.60;;;32.83;;
3865;SDS011;1948;53.250;10.412;2023-09-12T08:06:26;47.00;;;32.03;;
3865;SDS011;1948;53.250;10.412;2023-09-12T08:08:53;48.10;;;34.20;;
3865;SDS011;1948;53.250;10.412;2023-09-12T08:11:26;45.87;;;32.67;;
3865;SDS011;1948;53.250;10.412;2023-09-12T08:13:54;44.33;;;30.47;;
3865;SDS011;1948;53.250;10.412;2023-09-12T08:16:26;42.40;;;32.33;;
3865;SDS011;1948;53.250;10.412;2023-09-12T08:18:53;54.00;;;33.80;;
3865;SDS011;1948;53.250;10.412;2023-09-12T08:21:21;42.83;;;31.17;;
3865;SDS011;1948;53.250;10.412;2023-09-12T08:23:47;50.13;;;33.10;;
3865;SDS011;1948;53.250;10.412;2023-09-12T08:26:15;50.97;;;31.20;;
3865;SDS011;1948;53.250;10.412;2023-09-12T08:28:45;50.20;;;31.63;;
3865;SDS011;1948;53.250;10.412;2023-09-12T08:31:12;42.63;;;31.07;;
3865;SDS011;1948;53.250;10.412;2023-09-12T08:33:40;50.53;;;32.37;;
3865;SDS011;1948;53.250;10.412;2023-09-12T08:36:07;47.87;;;32.70;;
3865;SDS011;1948;53.250;10.412;2023-09-12T08:38:39;48.90;;;33.30;;
3865;SDS011;1948;53.250;10.412;2023-09-12T08:41:09;46.07;;;30.43;;
3865;SDS011;1948;53.250;10.412;2023-09-12T08:43:38;44.87;;;30.60;;
3865;SDS011;1948;53.250;10.412;2023-09-12T08:46:09;43.23;;;28.57;;
3865;SDS011;1948;53.250;10.412;2023-09-12T08:48:40;59.23;;;31.73;;
3865;SDS011;1948;53.250;10.412;2023-09-12T08:51:09;46.83;;;30.30;;
3865;SDS011;1948;53.250;10.412;2023-09-12T08:53:39;44.17;;;29.10;;
3865;SDS011;1948;53.250;10.412;2023-09-12T08:56:09;40.53;;;30.80;;
3865;SDS011;1948;53.250;10.412;2023-09-12T08:58:39;53.40;;;30.00;;
3865;SDS011;1948;53.250;10.412;2023-09-12T09:01:06;33.57;;;26.43;;
3865;SDS011;1948;53.250;10.412;2023-09-12T09:03:39;33.40;;;25.40;;
3865;SDS011;1948;53.250;10.412;2023-09-12T09:06:09;35.43;;;25.70;;
3865;SDS011;1948;53.250;10.412;2023-09-12T09:08:40;32.90;;;24.80;;
3865;SDS011;1948;53.250;10.412;2023-09-12T09:11:09;45.80;;;24.33;;
3865;SDS011;1948;53.250;10.412;2023-09-12T09:13:37;23.20;;;20.70;;
3865;SDS011;1948;53.250;10.412;2023-09-12T09:16:15;22.67;;;20.27;;
3865;SDS011;1948;53.250;10.412;2023-09-12T09:21:31;30.83;;;20.87;;
3865;SDS011;1948;53.250;10.412;2023-09-12T09:24:00;24.33;;;21.43;;
3865;SDS011;1948;53.250;10.412;2023-09-12T09:26:44;23.10;;;19.60;;
3865;SDS011;1948;53.250;10.412;2023-09-12T09:29:25;25.57;;;21.33;;
3865;SDS011;1948;53.250;10.412;2023-09-12T09:32:00;22.50;;;20.20;;
3865;SDS011;1948;53.250;10.412;2023-09-12T09:34:28;22.73;;;20.43;;
3865;SDS011;1948;53.250;10.412;2023-09-12T09:36:56;24.57;;;21.40;;
3865;SDS011;1948;53.250;10.412;2023-09-12T09:39:25;29.97;;;20.67;;
3865;SDS011;1948;53.250;10.412;2023-09-12T09:41:55;24.43;;;19.77;;
3865;SDS011;1948;53.250;10.412;2023-09-12T09:44:24;27.00;;;21.77;;
3865;SDS011;1948;53.250;10.412;2023-09-12T09:47:00;24.50;;;20.23;;
3865;SDS011;1948;53.250;10.412;2023-09-12T09:49:33;20.80;;;18.63;;
3865;SDS011;1948;53.250;10.412;2023-09-12T09:52:03;21.67;;;18.93;;
3865;SDS011;1948;53.250;10.412;2023-09-12T09:54:32;23.20;;;19.70;;
3865;SDS011;1948;53.250;10.412;2023-09-12T09:56:59;23.87;;;20.70;;
3865;SDS011;1948;53.250;10.412;2023-09-12T09:59:30;22.00;;;19.70;;
3865;SDS011;1948;53.250;10.412;2023-09-12T10:02:00;21.33;;;18.30;;
3865;SDS011;1948;53.250;10.412;2023-09-12T10:04:32;19.50;;;17.50;;
3865;SDS011;1948;53.250;10.412;2023-09-12T10:07:10;20.10;;;16.60;;
3865;SDS011;1948;53.250;10.412;2023-09-12T10:09:40;21.40;;;16.87;;
3865;SDS011;1948;53.250;10.412;2023-09-12T10:12:08;18.53;;;16.60;;
3865;SDS011;1948;53.250;10.412;2023-09-12T10:14:41;20.53;;;15.87;;
3865;SDS011;1948;53.250;10.412;2023-09-12T10:17:09;17.17;;;14.60;;
3865;SDS011;1948;53.250;10.412;2023-09-12T10:19:55;14.50;;;12.90;;
3865;SDS011;1948;53.250;10.412;2023-09-12T10:22:32;16.40;;;14.70;;
3865;SDS011;1948;53.250;10.412;2023-09-12T10:25:07;20.80;;;14.20;;
3865;SDS011;1948;53.250;10.412;2023-09-12T10:27:40;15.70;;;14.10;;
3865;SDS011;1948;53.250;10.412;2023-09-12T10:30:07;14.33;;;12.70;;
3865;SDS011;1948;53.250;10.412;2023-09-12T10:32:38;14.53;;;12.60;;
3865;SDS011;1948;53.250;10.412;2023-09-12T10:35:07;14.33;;;12.83;;
3865;SDS011;1948;53.250;10.412;2023-09-12T10:37:37;19.03;;;13.77;;
3865;SDS011;1948;53.250;10.412;2023-09-12T10:40:13;20.43;;;12.40;;
3865;SDS011;1948;53.250;10.412;2023-09-12T10:42:51;14.80;;;13.40;;
3865;SDS011;1948;53.250;10.412;2023-09-12T10:45:21;23.83;;;14.40;;
3865;SDS011;1948;53.250;10.412;2023-09-12T10:47:51;16.53;;;15.03;;
3865;SDS011;1948;53.250;10.412;2023-09-12T10:50:19;19.80;;;15.30;;
3865;SDS011;1948;53.250;10.412;2023-09-12T10:52:52;19.40;;;14.83;;
3865;SDS011;1948;53.250;10.412;2023-09-12T10:55:22;15.50;;;14.00;;
3865;SDS011;1948;53.250;10.412;2023-09-12T10:58:04;14.93;;;13.53;;
3865;SDS011;1948;53.250;10.412;2023-09-12T11:00:36;14.80;;;13.40;;
3865;SDS011;1948;53.250;10.412;2023-09-12T11:06:03;23.63;;;15.97;;
3865;SDS011;1948;53.250;10.412;2023-09-12T11:08:34;20.40;;;16.80;;
3865;SDS011;1948;53.250;10.412;2023-09-12T11:11:19;27.27;;;19.23;;
3865;SDS011;1948;53.250;10.412;2023-09-12T11:14:05;17.77;;;15.43;;
3865;SDS011;1948;53.250;10.412;2023-09-12T11:16:35;19.13;;;17.13;;
3865;SDS011;1948;53.250;10.412;2023-09-12T11:19:16;26.83;;;17.10;;
3865;SDS011;1948;53.250;10.412;2023-09-12T11:21:52;23.03;;;17.00;;
3865;SDS011;1948;53.250;10.412;2023-09-12T11:24:22;17.93;;;15.93;;
3865;SDS011;1948;53.250;10.412;2023-09-12T11:26:59;21.40;;;16.37;;
3865;SDS011;1948;53.250;10.412;2023-09-12T11:29:38;21.20;;;16.13;;
3865;SDS011;1948;53.250;10.412;2023-09-12T11:32:08;17.77;;;15.10;;
3865;SDS011;1948;53.250;10.412;2023-09-12T11:34:53;26.83;;;16.07;;
3865;SDS011;1948;53.250;10.412;2023-09-12T11:37:27;26.00;;;15.27;;
3865;SDS011;1948;53.250;10.412;2023-09-12T11:39:55;19.07;;;14.90;;
3865;SDS011;1948;53.250;10.412;2023-09-12T11:42:24;18.13;;;15.60;;
3865;SDS011;1948;53.250;10.412;2023-09-12T11:44:56;27.30;;;15.07;;
3865;SDS011;1948;53.250;10.412;2023-09-12T11:47:26;16.63;;;13.83;;
3865;SDS011;1948;53.250;10.412;2023-09-12T11:49:56;14.90;;;13.50;;
3865;SDS011;1948;53.250;10.412;2023-09-12T11:52:28;21.77;;;14.80;;
3865;SDS011;1948;53.250;10.412;2023-09-12T11:55:02;14.97;;;13.50;;
3865;SDS011;1948;53.250;10.412;2023-09-12T11:57:29;17.10;;;13.60;;
3865;SDS011;1948;53.250;10.412;2023-09-12T12:00:02;19.57;;;13.37;;
3865;SDS011;1948;53.250;10.412;2023-09-12T12:02:35;16.20;;;13.67;;
3865;SDS011;1948;53.250;10.412;2023-09-12T12:05:02;14.60;;;13.23;;
3865;SDS011;1948;53.250;10.412;2023-09-12T12:07:31;12.53;;;11.20;;
3865;SDS011;1948;53.250;10.412;2023-09-12T12:09:58;12.73;;;10.93;;
3865;SDS011;1948;53.250;10.412;2023-09-12T12:12:25;21.27;;;12.57;;
3865;SDS011;1948;53.250;10.412;2023-09-12T12:14:57;19.87;;;12.30;;
3865;SDS011;1948;53.250;10.412;2023-09-12T12:17:27;14.67;;;12.77;;
3865;SDS011;1948;53.250;10.412;2023-09-12T12:19:58;14.17;;;12.60;;
3865;SDS011;1948;53.250;10.412;2023-09-12T12:22:27;17.20;;;12.47;;
3865;SDS011;1948;53.250;10.412;2023-09-12T12:25:05;15.70;;;12.70;;
3865;SDS011;1948;53.250;10.412;2023-09-12T12:27:37;16.60;;;12.53;;
3865;SDS011;1948;53.250;10.412;2023-09-12T12:30:06;13.63;;;11.87;;
3865;SDS011;1948;53.250;10.412;2023-09-12T12:32:42;15.50;;;10.93;;
3865;SDS011;1948;53.250;10.412;2023-09-12T12:35:17;20.20;;;11.60;;
3865;SDS011;1948;53.250;10.412;2023-09-12T12:38:11;18.73;;;10.80;;
3865;SDS011;1948;53.250;10.412;2023-09-12T12:40:41;13.50;;;11.40;;
3865;SDS011;1948;53.250;10.412;2023-09-12T12:43:16;13.83;;;11.37;;
3865;SDS011;1948;53.250;10.412;2023-09-12T12:45:53;12.27;;;10.97;;
3865;SDS011;1948;53.250;10.412;2023-09-12T12:48:33;11.17;;;10.07;;
3865;SDS011;1948;53.250;10.412;2023-09-12T12:53:46;13.60;;;12.30;;
3865;SDS011;1948;53.250;10.412;2023-09-12T12:56:22;11.80;;;10.10;;
3865;SDS011;1948;53.250;10.412;2023-09-12T12:58:57;11.80;;;10.20;;
3865;SDS011;1948;53.250;10.412;2023-09-12T13:01:30;12.20;;;10.63;;
3865;SDS011;1948;53.250;10.412;2023-09-12T13:03:58;11.83;;;10.47;;
3865;SDS011;1948;53.250;10.412;2023-09-12T13:06:27;13.50;;;10.40;;
3865;SDS011;1948;53.250;10.412;2023-09-12T13:08:57;16.57;;;10.70;;
3865;SDS011;1948;53.250;10.412;2023-09-12T13:11:32;10.20;;;9.23;;
3865;SDS011;1948;53.250;10.412;2023-09-12T13:14:02;11.30;;;10.33;;
3865;SDS011;1948;53.250;10.412;2023-09-12T13:16:37;24.47;;;11.50;;
3865;SDS011;1948;53.250;10.412;2023-09-12T13:19:07;13.50;;;10.80;;
3865;SDS011;1948;53.250;10.412;2023-09-12T13:21:34;15.03;;;10.30;;
3865;SDS011;1948;53.250;10.412;2023-09-12T13:24:03;11.90;;;10.63;;
3865;SDS011;1948;53.250;10.412;2023-09-12T13:26:33;11.90;;;9.97;;
3865;SDS011;1948;53.250;10.412;2023-09-12T13:29:03;13.00;;;10.70;;
3865;SDS011;1948;53.250;10.412;2023-09-12T13:31:30;18.80;;;10.13;;
3865;SDS011;1948;53.250;10.412;2023-09-12T13:34:02;14.10;;;9.67;;
3865;SDS011;1948;53.250;10.412;2023-09-12T13:36:29;10.97;;;9.97;;
3865;SDS011;1948;53.250;10.412;2023-09-12T13:38:59;11.93;;;10.27;;
3865;SDS011;1948;53.250;10.412;2023-09-12T13:41:30;10.63;;;9.73;;
3865;SDS011;1948;53.250;10.412;2023-09-12T13:43:57;18.33;;;10.00;;
3865;SDS011;1948;53.250;10.412;2023-09-12T13:46:25;9.97;;;9.17;;
3865;SDS011;1948;53.250;10.412;2023-09-12T13:48:56;8.50;;;7.90;;
3865;SDS011;1948;53.250;10.412;2023-09-12T13:51:27;12.30;;;8.57;;
3865;SDS011;1948;53.250;10.412;2023-09-12T13:53:57;10.50;;;8.40;;
3865;SDS011;1948;53.250;10.412;2023-09-12T13:56:24;11.50;;;7.20;;
3865;SDS011;1948;53.250;10.412;2023-09-12T13:58:54;11.93;;;7.13;;
3865;SDS011;1948;53.250;10.412;2023-09-12T14:01:24;6.60;;;6.10;;
3865;SDS011;1948;53.250;10.412;2023-09-12T14:04:00;7.00;;;6.50;;
3865;SDS011;1948;53.250;10.412;2023-09-12T14:06:32;6.03;;;5.60;;
3865;SDS011;1948;53.250;10.412;2023-09-12T14:09:02;5.97;;;5.37;;
3865;SDS011;1948;53.250;10.412;2023-09-12T14:11:30;5.10;;;4.90;;
3865;SDS011;1948;53.250;10.412;2023-09-12T14:14:03;6.00;;;5.40;;
3865;SDS011;1948;53.250;10.412;2023-09-12T14:16:43;9.90;;;5.07;;
3865;SDS011;1948;53.250;10.412;2023-09-12T14:19:14;5.90;;;5.50;;
3865;SDS011;1948;53.250;10.412;2023-09-12T14:21:42;5.10;;;4.50;;
3865;SDS011;1948;53.250;10.412;2023-09-12T14:24:15;8.67;;;5.13;;
3865;SDS011;1948;53.250;10.412;2023-09-12T14:26:47;5.70;;;5.40;;
3865;SDS011;1948;53.250;10.412;2023-09-12T14:29:15;5.07;;;4.77;;
3865;SDS011;1948;53.250;10.412;2023-09-12T14:31:43;8.30;;;4.93;;
3865;SDS011;1948;53.250;10.412;2023-09-12T14:34:20;6.33;;;5.77;;
3865;SDS011;1948;53.250;10.412;2023-09-12T14:36:49;5.73;;;5.30;;
3865;SDS011;1948;53.250;10.412;2023-09-12T14:39:17;6.43;;;5.93;;
3865;SDS011;1948;53.250;10.412;2023-09-12T14:41:44;6.23;;;5.00;;
3865;SDS011;1948;53.250;10.412;2023-09-12T14:44:16;5.93;;;5.53;;
3865;SDS011;1948;53.250;10.412;2023-09-12T14:46:46;7.13;;;5.33;;
3865;SDS011;1948;53.250;10.412;2023-09-12T14:49:14;6.67;;;5.93;;
3865;SDS011;1948;53.250;10.412;2023-09-12T14:51:43;5.90;;;5.50;;
3865;SDS011;1948;53.250;10.412;2023-09-12T14:54:11;6.00;;;5.40;;
3865;SDS011;1948;53.250;10.412;2023-09-12T14:56:38;5.83;;;5.63;;
3865;SDS011;1948;53.250;10.412;2023-09-12T14:59:10;6.20;;;5.80;;
3865;SDS011;1948;53.250;10.412;2023-09-12T15:01:40;7.57;;;6.27;;
3865;SDS011;1948;53.250;10.412;2023-09-12T15:04:09;6.13;;;5.67;;
3865;SDS011;1948;53.250;10.412;2023-09-12T15:06:40;5.90;;;5.60;;
3865;SDS011;1948;53.250;10.412;2023-09-12T15:09:07;6.20;;;5.60;;